Historyczne dane pomiarowe

Dodano dane terminowe – wersja testowa.

Dane z okresu 1951-2019

Wersja bazy: 1.34 [2019-03-16, lista zmian], aktualizacja planowana na 2019-04-15

Dane meteo z obszaru Polski uzyskane na podstawie danych udostępnionych przez Instytut Meteorologii i Gospodarki Wodnej – Państwowy Instytut Badawczy.

 

Wybierz Datę:    

       

TemperaturaWilgotnośćWiatrCiśnienieOpadyŚniegCzas trwania zjawisk
 Stacja t tx tn tng RH VA  wxwx mslp ppp RRR   cm mm wxwxwxwxwxwxwx
1997-03-18-12.3 -8.6-15.8-17.2 76.5- 5.7 3.0---- 0.4-- 72---------
1997-03-19 -5.7 -1.7-11.4-15.0 80.8- 8.0 5.3---- 6.4-- 67---------
1997-03-20 -9.7 -4.1-13.2-14.4 94.5- 7.3 1.7---- 2.9-- 69---------
1997-03-21-12.0 -8.1-16.0-18.0 84.5- 5.3 1.7---- 1.7-- 79---------
1997-03-22-12.1 -9.2-16.0-17.6 89.8- 7.3 1.3---- 5.1-- 75---------
1997-03-23-10.4 -5.7-12.7-15.2 89.5- 5.3 1.7---- 1.2-- 87---------
1997-03-24 -9.1 -4.1-13.2-19.8 69.5- 3.7 2.3---- 0.2-- 79---------
1997-03-25 -8.6 -5.4-11.4-12.5 87.8- 7.3 1.7---- 1.2-- 74---------
1997-03-26 -9.6 -3.0-15.6-18.3 61.5- 0.7 3.0---- 0.0-- 75---------
1997-03-27 -1.6 2.2 -8.4-10.6 80.0- 7.7 3.7---- 2.4-- 70---------
1997-03-28 -1.0 3.9 -5.4 -5.7 80.5- 7.7 6.7---- 14.2-- 73---------
1997-03-29 -6.1 -4.8 -7.2 -7.4 90.8- 8.0 3.0---- 10.5-- 88---------
1997-03-30 -7.1 -5.6 -8.8 -8.8 96.8- 8.0 2.3---- 2.5-- 98---------
1997-03-31 -4.3 0.1 -8.7-14.0 83.0- 5.7 2.0---- 1.0-- 99---------
1997-04-01 0.6 3.9 -2.8 -5.0 97.3- 7.7 1.0---- 0.1-- 95---------
1997-04-02 2.0 5.9 -1.8 -5.2 79.5- 3.3 1.7---- 0.0-- 83---------
1997-04-03 2.1 7.8 -3.0 -6.8 49.0- 0.3 2.3---- 5.1-- 75---------
1997-04-04 -4.7 4.3 -9.5-10.2 88.3- 7.7 3.0---- 12.4-- 75---------
1997-04-05 -8.3 -6.1 -9.8-11.9 83.0- 7.3 4.7---- 8.9-- 90---------
1997-04-06 -6.1 -1.7 -9.8-11.1 91.5- 7.7 7.3---- 16.3--101---------
1997-04-07-11.0 -9.5-12.6-12.9 90.3- 8.0 4.7---- 7.1--124---------
1997-04-08-10.1 -6.1-12.4-13.8 83.0- 7.0 2.3---- 1.6--129---------
1997-04-09 -7.9 -3.2-14.9-19.4 70.3- 7.0 1.3---- 0.6--126---------
1997-04-10 -1.4 1.9 -4.9 -6.1 87.3- 7.7 3.3---- 0.9--118---------
1997-04-11 -2.6 2.8 -7.3 -7.8 71.3- 7.7 6.7---- 14.4--113---------
1997-04-12 -8.9 -6.2-11.2-11.3 93.8- 8.0 3.3---- 7.1--120---------
1997-04-13-10.5 -7.6-12.3-13.3 89.5- 7.3 0.7---- 0.4--146---------
1997-04-14 -6.2 -1.0-14.6-17.4 62.3- 5.7 3.0---- 9.6--139---------
1997-04-15 -6.7 -1.1-10.3-10.4 91.3- 7.7 2.0---- 10.6--136---------
1997-04-16-10.4 -8.7-12.1-12.3 90.0- 7.7 1.7---- 3.7--147---------
202.0 ms

 

Źródłem pochodzenia danych jest Instytut Meteorologii i Gospodarki Wodnej – Państwowy Instytut Badawczy. Dane Instytutu Meteorologii i Gospodarki Wodnej – Państwowego Instytutu Badawczego zostały przetworzone.

Dane źródłowe można odnaleźć na stronie https://dane.imgw.pl